Terminal Aerodrome Forecast
Issued by NWS

Home | Current Version | Previous Version | Text Only | Print | Product List | Glossary On
Versions: 1 2 3 4 5 6 7 8 9 10 11 12 13
000
FTUS45 KVEF 312329
TAFBIH
TAF
KBIH 312329Z 0100/0124 17010KT P6SM VCTS SCT090CB BKN120
      TEMPO 0100/0102 VRB20G35KT
     FM010300 15011KT P6SM SCT100 BKN150
     FM010500 27005KT P6SM FEW100 BKN150
     FM011900 17012G20KT P6SM VCTS SCT100CB BKN150=

USA.gov is the U.S. government's official web portal to all federal, state and local government web resources and services.